sensor_id;sensor_type;location;lat;lon;timestamp;P1;durP1;ratioP1;P2;durP2;ratioP2
13419;SDS011;6781;58.440;15.470;2023-03-23T00:01:30;14.13;;;3.30;;
13419;SDS011;6781;58.440;15.470;2023-03-23T00:04:02;14.87;;;3.40;;
13419;SDS011;6781;58.440;15.470;2023-03-23T00:06:29;14.60;;;3.33;;
13419;SDS011;6781;58.440;15.470;2023-03-23T00:09:00;13.33;;;2.77;;
13419;SDS011;6781;58.440;15.470;2023-03-23T00:11:32;12.10;;;3.00;;
13419;SDS011;6781;58.440;15.470;2023-03-23T00:14:00;13.43;;;3.03;;
13419;SDS011;6781;58.440;15.470;2023-03-23T00:16:28;15.60;;;3.73;;
13419;SDS011;6781;58.440;15.470;2023-03-23T00:18:58;13.60;;;3.20;;
13419;SDS011;6781;58.440;15.470;2023-03-23T00:21:27;15.50;;;3.37;;
13419;SDS011;6781;58.440;15.470;2023-03-23T00:24:00;16.00;;;3.23;;
13419;SDS011;6781;58.440;15.470;2023-03-23T00:26:29;14.40;;;3.63;;
13419;SDS011;6781;58.440;15.470;2023-03-23T00:29:00;12.63;;;3.53;;
13419;SDS011;6781;58.440;15.470;2023-03-23T00:31:28;15.47;;;3.60;;
13419;SDS011;6781;58.440;15.470;2023-03-23T00:33:58;11.07;;;2.93;;
13419;SDS011;6781;58.440;15.470;2023-03-23T00:36:29;18.53;;;3.60;;
13419;SDS011;6781;58.440;15.470;2023-03-23T00:38:56;16.60;;;3.37;;
13419;SDS011;6781;58.440;15.470;2023-03-23T00:41:25;16.33;;;3.63;;
13419;SDS011;6781;58.440;15.470;2023-03-23T00:43:53;14.73;;;3.53;;
13419;SDS011;6781;58.440;15.470;2023-03-23T00:46:23;19.13;;;3.70;;
13419;SDS011;6781;58.440;15.470;2023-03-23T00:48:51;11.30;;;3.37;;
13419;SDS011;6781;58.440;15.470;2023-03-23T00:51:18;15.10;;;3.70;;
13419;SDS011;6781;58.440;15.470;2023-03-23T00:53:45;19.53;;;3.87;;
13419;SDS011;6781;58.440;15.470;2023-03-23T00:56:13;16.47;;;4.47;;
13419;SDS011;6781;58.440;15.470;2023-03-23T00:58:41;16.73;;;3.53;;
13419;SDS011;6781;58.440;15.470;2023-03-23T01:01:08;13.07;;;3.57;;
13419;SDS011;6781;58.440;15.470;2023-03-23T01:03:37;12.23;;;3.10;;
13419;SDS011;6781;58.440;15.470;2023-03-23T01:06:05;16.83;;;3.77;;
13419;SDS011;6781;58.440;15.470;2023-03-23T01:08:37;17.87;;;3.20;;
13419;SDS011;6781;58.440;15.470;2023-03-23T01:11:10;17.93;;;3.10;;
13419;SDS011;6781;58.440;15.470;2023-03-23T01:13:38;16.00;;;3.90;;
13419;SDS011;6781;58.440;15.470;2023-03-23T01:16:06;15.47;;;4.13;;
13419;SDS011;6781;58.440;15.470;2023-03-23T01:18:34;16.00;;;3.80;;
13419;SDS011;6781;58.440;15.470;2023-03-23T01:21:04;12.83;;;4.00;;
13419;SDS011;6781;58.440;15.470;2023-03-23T01:23:32;16.03;;;3.47;;
13419;SDS011;6781;58.440;15.470;2023-03-23T01:26:02;15.23;;;3.67;;
13419;SDS011;6781;58.440;15.470;2023-03-23T01:28:30;18.80;;;3.77;;
13419;SDS011;6781;58.440;15.470;2023-03-23T01:31:01;19.63;;;3.77;;
13419;SDS011;6781;58.440;15.470;2023-03-23T01:33:28;17.80;;;3.63;;
13419;SDS011;6781;58.440;15.470;2023-03-23T01:35:56;23.57;;;4.53;;
13419;SDS011;6781;58.440;15.470;2023-03-23T01:38:24;16.50;;;3.20;;
13419;SDS011;6781;58.440;15.470;2023-03-23T01:40:51;14.27;;;3.70;;
13419;SDS011;6781;58.440;15.470;2023-03-23T01:43:18;16.60;;;3.93;;
13419;SDS011;6781;58.440;15.470;2023-03-23T01:45:45;11.10;;;3.47;;
13419;SDS011;6781;58.440;15.470;2023-03-23T01:48:13;16.77;;;3.57;;
13419;SDS011;6781;58.440;15.470;2023-03-23T01:50:48;11.37;;;3.13;;
13419;SDS011;6781;58.440;15.470;2023-03-23T01:53:20;14.23;;;3.27;;
13419;SDS011;6781;58.440;15.470;2023-03-23T01:55:52;14.17;;;3.93;;
13419;SDS011;6781;58.440;15.470;2023-03-23T01:58:23;16.27;;;3.63;;
13419;SDS011;6781;58.440;15.470;2023-03-23T02:00:52;14.73;;;3.30;;
13419;SDS011;6781;58.440;15.470;2023-03-23T02:03:21;17.97;;;3.70;;
13419;SDS011;6781;58.440;15.470;2023-03-23T02:08:26;13.93;;;3.80;;
13419;SDS011;6781;58.440;15.470;2023-03-23T02:10:56;11.30;;;4.00;;
13419;SDS011;6781;58.440;15.470;2023-03-23T02:13:25;15.70;;;3.70;;
13419;SDS011;6781;58.440;15.470;2023-03-23T02:15:58;17.93;;;4.03;;
13419;SDS011;6781;58.440;15.470;2023-03-23T02:18:42;14.07;;;3.00;;
13419;SDS011;6781;58.440;15.470;2023-03-23T02:24:28;16.43;;;4.10;;
13419;SDS011;6781;58.440;15.470;2023-03-23T02:27:10;14.77;;;4.43;;
13419;SDS011;6781;58.440;15.470;2023-03-23T02:29:55;22.07;;;3.83;;
13419;SDS011;6781;58.440;15.470;2023-03-23T02:35:54;18.77;;;3.90;;
13419;SDS011;6781;58.440;15.470;2023-03-23T02:38:26;14.50;;;3.47;;
13419;SDS011;6781;58.440;15.470;2023-03-23T02:40:57;15.03;;;3.30;;
13419;SDS011;6781;58.440;15.470;2023-03-23T02:43:28;17.80;;;3.60;;
13419;SDS011;6781;58.440;15.470;2023-03-23T02:45:58;18.77;;;3.73;;
13419;SDS011;6781;58.440;15.470;2023-03-23T02:48:28;14.67;;;3.50;;
13419;SDS011;6781;58.440;15.470;2023-03-23T02:50:57;16.47;;;3.90;;
13419;SDS011;6781;58.440;15.470;2023-03-23T02:53:27;18.37;;;4.23;;
13419;SDS011;6781;58.440;15.470;2023-03-23T02:55:56;17.17;;;4.37;;
13419;SDS011;6781;58.440;15.470;2023-03-23T02:58:26;16.77;;;4.93;;
13419;SDS011;6781;58.440;15.470;2023-03-23T03:00:54;20.60;;;4.20;;
13419;SDS011;6781;58.440;15.470;2023-03-23T03:03:21;19.60;;;4.00;;
13419;SDS011;6781;58.440;15.470;2023-03-23T03:05:55;17.13;;;3.80;;
13419;SDS011;6781;58.440;15.470;2023-03-23T03:08:35;13.87;;;3.97;;
13419;SDS011;6781;58.440;15.470;2023-03-23T03:11:11;17.43;;;3.93;;
13419;SDS011;6781;58.440;15.470;2023-03-23T03:13:45;19.00;;;3.93;;
13419;SDS011;6781;58.440;15.470;2023-03-23T03:16:18;13.23;;;3.37;;
13419;SDS011;6781;58.440;15.470;2023-03-23T03:18:54;16.00;;;3.90;;
13419;SDS011;6781;58.440;15.470;2023-03-23T03:21:27;16.50;;;3.63;;
13419;SDS011;6781;58.440;15.470;2023-03-23T03:23:58;15.03;;;3.50;;
13419;SDS011;6781;58.440;15.470;2023-03-23T03:26:27;15.40;;;3.00;;
13419;SDS011;6781;58.440;15.470;2023-03-23T03:28:56;18.23;;;4.17;;
13419;SDS011;6781;58.440;15.470;2023-03-23T03:31:26;20.27;;;4.17;;
13419;SDS011;6781;58.440;15.470;2023-03-23T03:33:56;15.43;;;3.93;;
13419;SDS011;6781;58.440;15.470;2023-03-23T03:36:28;14.23;;;3.40;;
13419;SDS011;6781;58.440;15.470;2023-03-23T03:39:00;15.17;;;4.03;;
13419;SDS011;6781;58.440;15.470;2023-03-23T03:41:32;14.37;;;3.40;;
13419;SDS011;6781;58.440;15.470;2023-03-23T03:44:00;20.03;;;3.90;;
13419;SDS011;6781;58.440;15.470;2023-03-23T03:46:27;17.40;;;3.30;;
13419;SDS011;6781;58.440;15.470;2023-03-23T03:48:56;15.73;;;3.57;;
13419;SDS011;6781;58.440;15.470;2023-03-23T03:51:23;17.77;;;3.77;;
13419;SDS011;6781;58.440;15.470;2023-03-23T03:53:52;13.93;;;3.87;;
13419;SDS011;6781;58.440;15.470;2023-03-23T03:56:19;21.60;;;3.90;;
13419;SDS011;6781;58.440;15.470;2023-03-23T03:58:47;17.00;;;4.20;;
13419;SDS011;6781;58.440;15.470;2023-03-23T04:01:15;15.73;;;4.07;;
13419;SDS011;6781;58.440;15.470;2023-03-23T04:03:43;16.00;;;3.77;;
13419;SDS011;6781;58.440;15.470;2023-03-23T04:06:10;15.90;;;3.40;;
13419;SDS011;6781;58.440;15.470;2023-03-23T04:08:38;18.63;;;4.03;;
13419;SDS011;6781;58.440;15.470;2023-03-23T04:11:08;15.13;;;4.43;;
13419;SDS011;6781;58.440;15.470;2023-03-23T04:13:36;12.37;;;3.87;;
13419;SDS011;6781;58.440;15.470;2023-03-23T04:16:03;18.90;;;3.73;;
13419;SDS011;6781;58.440;15.470;2023-03-23T04:18:31;14.03;;;3.20;;
13419;SDS011;6781;58.440;15.470;2023-03-23T04:20:59;16.97;;;3.97;;
13419;SDS011;6781;58.440;15.470;2023-03-23T04:23:28;22.70;;;4.40;;
13419;SDS011;6781;58.440;15.470;2023-03-23T04:25:58;13.27;;;3.53;;
13419;SDS011;6781;58.440;15.470;2023-03-23T04:28:27;13.73;;;3.47;;
13419;SDS011;6781;58.440;15.470;2023-03-23T04:30:54;11.20;;;3.40;;
13419;SDS011;6781;58.440;15.470;2023-03-23T04:33:22;15.57;;;3.63;;
13419;SDS011;6781;58.440;15.470;2023-03-23T04:35:51;15.63;;;4.17;;
13419;SDS011;6781;58.440;15.470;2023-03-23T04:38:21;11.03;;;3.10;;
13419;SDS011;6781;58.440;15.470;2023-03-23T04:40:50;12.40;;;3.43;;
13419;SDS011;6781;58.440;15.470;2023-03-23T04:43:18;17.13;;;3.77;;
13419;SDS011;6781;58.440;15.470;2023-03-23T04:45:52;16.87;;;3.90;;
13419;SDS011;6781;58.440;15.470;2023-03-23T04:48:21;15.47;;;3.80;;
13419;SDS011;6781;58.440;15.470;2023-03-23T04:50:50;15.97;;;3.70;;
13419;SDS011;6781;58.440;15.470;2023-03-23T04:53:17;14.27;;;3.63;;
13419;SDS011;6781;58.440;15.470;2023-03-23T04:55:45;18.23;;;4.20;;
13419;SDS011;6781;58.440;15.470;2023-03-23T04:58:14;20.30;;;4.83;;
13419;SDS011;6781;58.440;15.470;2023-03-23T05:00:41;17.20;;;3.50;;
13419;SDS011;6781;58.440;15.470;2023-03-23T05:03:16;20.47;;;3.97;;
13419;SDS011;6781;58.440;15.470;2023-03-23T05:05:43;20.60;;;4.03;;
13419;SDS011;6781;58.440;15.470;2023-03-23T05:08:12;19.87;;;4.07;;
13419;SDS011;6781;58.440;15.470;2023-03-23T05:10:39;15.03;;;3.87;;
13419;SDS011;6781;58.440;15.470;2023-03-23T05:13:06;14.73;;;3.80;;
13419;SDS011;6781;58.440;15.470;2023-03-23T05:15:33;14.20;;;3.87;;
13419;SDS011;6781;58.440;15.470;2023-03-23T05:18:00;14.33;;;3.63;;
13419;SDS011;6781;58.440;15.470;2023-03-23T05:20:28;18.57;;;4.73;;
13419;SDS011;6781;58.440;15.470;2023-03-23T05:22:55;13.37;;;4.13;;
13419;SDS011;6781;58.440;15.470;2023-03-23T05:25:23;16.90;;;3.87;;
13419;SDS011;6781;58.440;15.470;2023-03-23T05:27:51;16.87;;;4.43;;
13419;SDS011;6781;58.440;15.470;2023-03-23T05:30:19;14.93;;;4.03;;
13419;SDS011;6781;58.440;15.470;2023-03-23T05:32:46;17.43;;;4.30;;
13419;SDS011;6781;58.440;15.470;2023-03-23T05:35:15;16.30;;;4.10;;
13419;SDS011;6781;58.440;15.470;2023-03-23T05:37:45;18.50;;;3.73;;
13419;SDS011;6781;58.440;15.470;2023-03-23T05:40:12;12.33;;;4.07;;
13419;SDS011;6781;58.440;15.470;2023-03-23T05:42:39;16.60;;;4.80;;
13419;SDS011;6781;58.440;15.470;2023-03-23T05:45:08;15.90;;;4.13;;
13419;SDS011;6781;58.440;15.470;2023-03-23T05:47:36;20.77;;;4.90;;
13419;SDS011;6781;58.440;15.470;2023-03-23T05:50:03;17.10;;;4.43;;
13419;SDS011;6781;58.440;15.470;2023-03-23T05:52:32;17.33;;;4.90;;
13419;SDS011;6781;58.440;15.470;2023-03-23T05:55:02;17.10;;;4.37;;
13419;SDS011;6781;58.440;15.470;2023-03-23T05:57:29;16.30;;;4.47;;
13419;SDS011;6781;58.440;15.470;2023-03-23T05:59:57;13.93;;;5.00;;
13419;SDS011;6781;58.440;15.470;2023-03-23T06:02:25;16.33;;;4.87;;
13419;SDS011;6781;58.440;15.470;2023-03-23T06:04:54;17.20;;;4.73;;
13419;SDS011;6781;58.440;15.470;2023-03-23T06:07:22;17.53;;;4.67;;
13419;SDS011;6781;58.440;15.470;2023-03-23T06:09:49;13.07;;;4.60;;
13419;SDS011;6781;58.440;15.470;2023-03-23T06:12:18;15.00;;;4.37;;
13419;SDS011;6781;58.440;15.470;2023-03-23T06:14:46;17.77;;;4.87;;
13419;SDS011;6781;58.440;15.470;2023-03-23T06:17:13;15.90;;;4.20;;
13419;SDS011;6781;58.440;15.470;2023-03-23T06:19:41;18.73;;;4.93;;
13419;SDS011;6781;58.440;15.470;2023-03-23T06:22:08;18.13;;;5.20;;
13419;SDS011;6781;58.440;15.470;2023-03-23T06:24:36;15.37;;;4.77;;
13419;SDS011;6781;58.440;15.470;2023-03-23T06:27:03;19.37;;;5.47;;
13419;SDS011;6781;58.440;15.470;2023-03-23T06:29:31;23.87;;;5.10;;
13419;SDS011;6781;58.440;15.470;2023-03-23T06:31:59;16.80;;;4.37;;
13419;SDS011;6781;58.440;15.470;2023-03-23T06:34:28;19.13;;;5.37;;
13419;SDS011;6781;58.440;15.470;2023-03-23T06:36:55;16.20;;;4.43;;
13419;SDS011;6781;58.440;15.470;2023-03-23T06:39:22;15.40;;;5.10;;
13419;SDS011;6781;58.440;15.470;2023-03-23T06:41:52;21.83;;;5.17;;
13419;SDS011;6781;58.440;15.470;2023-03-23T07:03:57;18.83;;;5.37;;
13419;SDS011;6781;58.440;15.470;2023-03-23T07:06:24;17.00;;;5.40;;
